sensor_id;sensor_type;location;lat;lon;timestamp;temperature;humidity
1812;DHT22;904;47.814;11.134;2022-10-22T02:24:48;13.50;99.90
1812;DHT22;904;47.814;11.134;2022-10-22T02:27:21;15.50;99.90
1812;DHT22;904;47.814;11.134;2022-10-22T02:29:53;15.20;99.90
1812;DHT22;904;47.814;11.134;2022-10-22T02:32:27;15.10;99.90
1812;DHT22;904;47.814;11.134;2022-10-22T02:34:58;15.00;99.90
1812;DHT22;904;47.814;11.134;2022-10-22T02:37:28;15.00;99.90
1812;DHT22;904;47.814;11.134;2022-10-22T02:39:55;15.00;99.90
1812;DHT22;904;47.814;11.134;2022-10-22T02:42:23;15.00;99.90
1812;DHT22;904;47.814;11.134;2022-10-22T02:44:55;14.90;99.90
1812;DHT22;904;47.814;11.134;2022-10-22T02:47:22;14.90;99.90
1812;DHT22;904;47.814;11.134;2022-10-22T02:49:51;14.90;99.90
1812;DHT22;904;47.814;11.134;2022-10-22T02:52:18;14.90;99.90
1812;DHT22;904;47.814;11.134;2022-10-22T02:54:45;14.80;99.90
1812;DHT22;904;47.814;11.134;2022-10-22T02:57:12;14.80;99.90
1812;DHT22;904;47.814;11.134;2022-10-22T02:59:40;14.70;99.90
1812;DHT22;904;47.814;11.134;2022-10-22T03:02:07;14.70;99.90
1812;DHT22;904;47.814;11.134;2022-10-22T03:04:34;14.70;99.90
1812;DHT22;904;47.814;11.134;2022-10-22T03:07:03;14.60;99.90
1812;DHT22;904;47.814;11.134;2022-10-22T03:09:30;14.50;99.90
1812;DHT22;904;47.814;11.134;2022-10-22T03:11:58;14.50;99.90
1812;DHT22;904;47.814;11.134;2022-10-22T03:14:25;14.50;99.90
1812;DHT22;904;47.814;11.134;2022-10-22T03:16:52;14.40;99.90
1812;DHT22;904;47.814;11.134;2022-10-22T03:19:20;14.30;99.90
1812;DHT22;904;47.814;11.134;2022-10-22T03:21:48;14.20;99.90
1812;DHT22;904;47.814;11.134;2022-10-22T03:24:21;14.10;99.90
1812;DHT22;904;47.814;11.134;2022-10-22T03:26:50;14.10;99.90
1812;DHT22;904;47.814;11.134;2022-10-22T03:29:19;14.00;99.90
1812;DHT22;904;47.814;11.134;2022-10-22T03:31:48;13.90;99.90
1812;DHT22;904;47.814;11.134;2022-10-22T03:34:15;13.80;99.90
1812;DHT22;904;47.814;11.134;2022-10-22T03:36:44;13.80;99.90
1812;DHT22;904;47.814;11.134;2022-10-22T03:39:13;13.80;99.90
1812;DHT22;904;47.814;11.134;2022-10-22T03:41:42;13.80;99.90
1812;DHT22;904;47.814;11.134;2022-10-22T03:44:10;13.70;99.90
1812;DHT22;904;47.814;11.134;2022-10-22T03:46:38;13.70;99.90
1812;DHT22;904;47.814;11.134;2022-10-22T03:49:05;13.80;99.90
1812;DHT22;904;47.814;11.134;2022-10-22T03:51:32;13.80;99.90
1812;DHT22;904;47.814;11.134;2022-10-22T03:54:00;13.80;99.90
1812;DHT22;904;47.814;11.134;2022-10-22T03:56:28;13.80;99.90
1812;DHT22;904;47.814;11.134;2022-10-22T03:58:58;13.80;99.90
1812;DHT22;904;47.814;11.134;2022-10-22T04:01:26;13.70;99.90
1812;DHT22;904;47.814;11.134;2022-10-22T04:03:54;13.70;99.90
1812;DHT22;904;47.814;11.134;2022-10-22T04:06:22;13.70;99.90
1812;DHT22;904;47.814;11.134;2022-10-22T04:08:49;13.70;99.90
1812;DHT22;904;47.814;11.134;2022-10-22T04:11:17;13.60;99.90
1812;DHT22;904;47.814;11.134;2022-10-22T04:13:44;13.70;99.90
1812;DHT22;904;47.814;11.134;2022-10-22T04:16:14;13.70;99.90
1812;DHT22;904;47.814;11.134;2022-10-22T04:18:43;13.80;99.90
1812;DHT22;904;47.814;11.134;2022-10-22T04:21:12;13.80;99.90
1812;DHT22;904;47.814;11.134;2022-10-22T04:23:43;13.90;99.90
1812;DHT22;904;47.814;11.134;2022-10-22T04:26:13;13.90;99.90
1812;DHT22;904;47.814;11.134;2022-10-22T04:28:40;13.90;99.90
1812;DHT22;904;47.814;11.134;2022-10-22T04:31:08;13.90;99.90
1812;DHT22;904;47.814;11.134;2022-10-22T04:33:37;13.90;99.90
1812;DHT22;904;47.814;11.134;2022-10-22T04:36:11;13.90;99.90
1812;DHT22;904;47.814;11.134;2022-10-22T04:38:39;13.90;99.90
1812;DHT22;904;47.814;11.134;2022-10-22T04:41:10;13.80;99.90
1812;DHT22;904;47.814;11.134;2022-10-22T04:43:38;13.80;99.90
1812;DHT22;904;47.814;11.134;2022-10-22T04:46:06;13.80;99.90
1812;DHT22;904;47.814;11.134;2022-10-22T04:48:36;13.80;99.90
1812;DHT22;904;47.814;11.134;2022-10-22T04:51:04;13.70;99.90
1812;DHT22;904;47.814;11.134;2022-10-22T04:53:31;13.70;99.90
1812;DHT22;904;47.814;11.134;2022-10-22T04:56:07;13.70;99.90
1812;DHT22;904;47.814;11.134;2022-10-22T04:58:35;13.70;99.90
1812;DHT22;904;47.814;11.134;2022-10-22T05:01:09;13.70;99.90
1812;DHT22;904;47.814;11.134;2022-10-22T05:03:38;13.60;99.90
1812;DHT22;904;47.814;11.134;2022-10-22T05:06:06;13.60;99.90
1812;DHT22;904;47.814;11.134;2022-10-22T05:08:33;13.50;99.90
1812;DHT22;904;47.814;11.134;2022-10-22T05:11:01;13.50;99.90
1812;DHT22;904;47.814;11.134;2022-10-22T05:13:36;13.40;99.90
1812;DHT22;904;47.814;11.134;2022-10-22T05:16:03;13.50;99.90
1812;DHT22;904;47.814;11.134;2022-10-22T05:18:33;13.50;99.90
1812;DHT22;904;47.814;11.134;2022-10-22T05:21:02;13.60;99.90
1812;DHT22;904;47.814;11.134;2022-10-22T05:23:30;13.50;99.90
1812;DHT22;904;47.814;11.134;2022-10-22T05:26:01;13.60;99.90
1812;DHT22;904;47.814;11.134;2022-10-22T05:28:28;13.60;99.90
1812;DHT22;904;47.814;11.134;2022-10-22T05:30:57;13.60;99.90
1812;DHT22;904;47.814;11.134;2022-10-22T05:33:25;13.60;99.90
1812;DHT22;904;47.814;11.134;2022-10-22T05:35:52;13.60;99.90
1812;DHT22;904;47.814;11.134;2022-10-22T05:38:21;13.70;99.90
1812;DHT22;904;47.814;11.134;2022-10-22T05:40:59;13.70;99.90
1812;DHT22;904;47.814;11.134;2022-10-22T05:43:26;13.70;99.90
1812;DHT22;904;47.814;11.134;2022-10-22T05:45:53;13.70;99.90
1812;DHT22;904;47.814;11.134;2022-10-22T05:48:21;13.70;99.90
1812;DHT22;904;47.814;11.134;2022-10-22T05:50:48;13.60;99.90
1812;DHT22;904;47.814;11.134;2022-10-22T05:53:17;13.60;99.90
1812;DHT22;904;47.814;11.134;2022-10-22T05:55:46;13.60;99.90
1812;DHT22;904;47.814;11.134;2022-10-22T05:58:16;13.60;99.90
1812;DHT22;904;47.814;11.134;2022-10-22T06:00:45;13.60;99.90
1812;DHT22;904;47.814;11.134;2022-10-22T06:03:14;13.60;99.90
1812;DHT22;904;47.814;11.134;2022-10-22T06:05:42;13.60;99.90
1812;DHT22;904;47.814;11.134;2022-10-22T06:08:10;13.60;99.90
1812;DHT22;904;47.814;11.134;2022-10-22T06:10:41;13.60;99.90
1812;DHT22;904;47.814;11.134;2022-10-22T06:13:10;13.60;99.90
1812;DHT22;904;47.814;11.134;2022-10-22T06:15:37;13.60;99.90
1812;DHT22;904;47.814;11.134;2022-10-22T06:18:04;13.60;99.90
1812;DHT22;904;47.814;11.134;2022-10-22T06:20:33;13.60;99.90
1812;DHT22;904;47.814;11.134;2022-10-22T06:23:00;13.50;99.90
1812;DHT22;904;47.814;11.134;2022-10-22T06:25:27;13.60;99.90
1812;DHT22;904;47.814;11.134;2022-10-22T06:27:55;13.60;99.90
1812;DHT22;904;47.814;11.134;2022-10-22T06:30:24;13.60;99.90
1812;DHT22;904;47.814;11.134;2022-10-22T06:32:51;13.60;99.90
1812;DHT22;904;47.814;11.134;2022-10-22T06:35:18;13.60;99.90
1812;DHT22;904;47.814;11.134;2022-10-22T06:37:45;13.60;99.90
1812;DHT22;904;47.814;11.134;2022-10-22T06:40:13;13.50;99.90
1812;DHT22;904;47.814;11.134;2022-10-22T06:42:43;13.50;99.90
1812;DHT22;904;47.814;11.134;2022-10-22T06:45:11;13.50;99.90
1812;DHT22;904;47.814;11.134;2022-10-22T06:47:42;13.40;99.90
1812;DHT22;904;47.814;11.134;2022-10-22T06:50:09;13.40;99.90
1812;DHT22;904;47.814;11.134;2022-10-22T06:52:37;13.30;99.90
1812;DHT22;904;47.814;11.134;2022-10-22T06:55:05;13.20;99.90
1812;DHT22;904;47.814;11.134;2022-10-22T06:57:32;13.10;99.90
1812;DHT22;904;47.814;11.134;2022-10-22T06:59:59;13.10;99.90
1812;DHT22;904;47.814;11.134;2022-10-22T07:02:26;13.20;99.90
1812;DHT22;904;47.814;11.134;2022-10-22T07:04:55;13.30;99.90
1812;DHT22;904;47.814;11.134;2022-10-22T07:07:23;13.40;99.90
1812;DHT22;904;47.814;11.134;2022-10-22T07:09:50;13.50;99.90
1812;DHT22;904;47.814;11.134;2022-10-22T07:12:17;13.50;99.90
1812;DHT22;904;47.814;11.134;2022-10-22T07:14:45;13.60;99.90
1812;DHT22;904;47.814;11.134;2022-10-22T07:17:12;13.60;99.90
1812;DHT22;904;47.814;11.134;2022-10-22T07:19:39;13.70;99.90
1812;DHT22;904;47.814;11.134;2022-10-22T07:22:08;13.70;99.90
1812;DHT22;904;47.814;11.134;2022-10-22T07:24:35;13.70;99.90
1812;DHT22;904;47.814;11.134;2022-10-22T07:27:02;13.70;99.90
1812;DHT22;904;47.814;11.134;2022-10-22T07:29:30;13.70;99.90
1812;DHT22;904;47.814;11.134;2022-10-22T07:31:57;13.80;99.90
1812;DHT22;904;47.814;11.134;2022-10-22T07:34:24;13.70;99.90
1812;DHT22;904;47.814;11.134;2022-10-22T07:36:51;13.70;99.90
1812;DHT22;904;47.814;11.134;2022-10-22T07:39:20;13.70;99.90
1812;DHT22;904;47.814;11.134;2022-10-22T07:41:48;13.70;99.90
1812;DHT22;904;47.814;11.134;2022-10-22T07:44:15;13.60;99.90
1812;DHT22;904;47.814;11.134;2022-10-22T07:46:42;13.60;99.90
1812;DHT22;904;47.814;11.134;2022-10-22T07:49:10;13.60;99.90
1812;DHT22;904;47.814;11.134;2022-10-22T07:51:37;13.60;99.90
1812;DHT22;904;47.814;11.134;2022-10-22T07:54:04;13.60;99.90
1812;DHT22;904;47.814;11.134;2022-10-22T07:56:33;13.60;99.90
1812;DHT22;904;47.814;11.134;2022-10-22T07:59:00;13.60;99.90
1812;DHT22;904;47.814;11.134;2022-10-22T08:01:27;13.60;99.90
1812;DHT22;904;47.814;11.134;2022-10-22T08:03:54;13.60;99.90
1812;DHT22;904;47.814;11.134;2022-10-22T08:06:22;13.60;99.90
1812;DHT22;904;47.814;11.134;2022-10-22T08:08:49;13.60;99.90
1812;DHT22;904;47.814;11.134;2022-10-22T08:11:16;13.60;99.90
1812;DHT22;904;47.814;11.134;2022-10-22T08:13:45;13.70;99.90
1812;DHT22;904;47.814;11.134;2022-10-22T08:16:13;13.70;99.90
1812;DHT22;904;47.814;11.134;2022-10-22T08:18:41;13.60;99.90
1812;DHT22;904;47.814;11.134;2022-10-22T08:21:08;13.60;99.90
1812;DHT22;904;47.814;11.134;2022-10-22T08:23:36;13.50;99.90
1812;DHT22;904;47.814;11.134;2022-10-22T08:26:04;13.50;99.90
1812;DHT22;904;47.814;11.134;2022-10-22T08:28:31;13.50;99.90
1812;DHT22;904;47.814;11.134;2022-10-22T08:31:03;13.50;99.90
1812;DHT22;904;47.814;11.134;2022-10-22T08:33:32;13.50;99.90
1812;DHT22;904;47.814;11.134;2022-10-22T08:36:01;13.60;99.90
1812;DHT22;904;47.814;11.134;2022-10-22T08:38:31;13.70;99.90
1812;DHT22;904;47.814;11.134;2022-10-22T08:41:07;13.80;99.90
1812;DHT22;904;47.814;11.134;2022-10-22T08:47:14;14.00;99.90
1812;DHT22;904;47.814;11.134;2022-10-22T08:49:45;14.10;99.90
1812;DHT22;904;47.814;11.134;2022-10-22T08:52:15;14.20;99.90
1812;DHT22;904;47.814;11.134;2022-10-22T08:54:50;14.30;99.90
1812;DHT22;904;47.814;11.134;2022-10-22T08:57:32;14.40;99.90
1812;DHT22;904;47.814;11.134;2022-10-22T09:00:04;14.50;99.90
1812;DHT22;904;47.814;11.134;2022-10-22T09:02:42;14.50;99.90
1812;DHT22;904;47.814;11.134;2022-10-22T09:05:20;14.60;99.90
1812;DHT22;904;47.814;11.134;2022-10-22T09:07:49;14.60;99.90
1812;DHT22;904;47.814;11.134;2022-10-22T09:10:18;14.60;99.90
1812;DHT22;904;47.814;11.134;2022-10-22T09:12:47;14.70;99.90
1812;DHT22;904;47.814;11.134;2022-10-22T09:15:15;14.80;99.90
1812;DHT22;904;47.814;11.134;2022-10-22T09:17:56;14.90;99.90
1812;DHT22;904;47.814;11.134;2022-10-22T09:20:29;14.90;99.90
1812;DHT22;904;47.814;11.134;2022-10-22T09:23:11;14.90;99.90
1812;DHT22;904;47.814;11.134;2022-10-22T09:25:41;15.00;99.90
1812;DHT22;904;47.814;11.134;2022-10-22T09:28:09;15.00;99.90
1812;DHT22;904;47.814;11.134;2022-10-22T09:30:38;14.90;99.90
1812;DHT22;904;47.814;11.134;2022-10-22T09:33:13;14.90;99.90
1812;DHT22;904;47.814;11.134;2022-10-22T09:35:49;15.00;99.90
1812;DHT22;904;47.814;11.134;2022-10-22T09:38:30;15.10;99.90
1812;DHT22;904;47.814;11.134;2022-10-22T09:41:00;15.20;99.90
1812;DHT22;904;47.814;11.134;2022-10-22T09:43:28;15.30;99.90
1812;DHT22;904;47.814;11.134;2022-10-22T09:45:57;15.50;99.90
1812;DHT22;904;47.814;11.134;2022-10-22T09:48:31;15.70;99.90
1812;DHT22;904;47.814;11.134;2022-10-22T09:51:04;16.10;99.90
1812;DHT22;904;47.814;11.134;2022-10-22T09:53:36;16.30;99.90
1812;DHT22;904;47.814;11.134;2022-10-22T09:56:08;16.70;99.90
1812;DHT22;904;47.814;11.134;2022-10-22T09:58:44;17.10;99.90
1812;DHT22;904;47.814;11.134;2022-10-22T10:01:17;17.70;99.90
1812;DHT22;904;47.814;11.134;2022-10-22T10:03:47;18.10;99.50
1812;DHT22;904;47.814;11.134;2022-10-22T10:06:17;18.50;97.20
1812;DHT22;904;47.814;11.134;2022-10-22T10:08:44;19.10;97.60
1812;DHT22;904;47.814;11.134;2022-10-22T10:11:18;20.00;94.80
1812;DHT22;904;47.814;11.134;2022-10-22T10:13:55;20.80;92.40
1812;DHT22;904;47.814;11.134;2022-10-22T10:16:34;22.20;92.20
1812;DHT22;904;47.814;11.134;2022-10-22T10:19:26;25.00;84.70
1812;DHT22;904;47.814;11.134;2022-10-22T10:22:04;27.00;66.60
1812;DHT22;904;47.814;11.134;2022-10-22T10:24:51;28.00;60.50
1812;DHT22;904;47.814;11.134;2022-10-22T10:27:26;29.30;52.90
1812;DHT22;904;47.814;11.134;2022-10-22T10:30:03;31.10;49.90
1812;DHT22;904;47.814;11.134;2022-10-22T10:32:47;32.50;44.60
1812;DHT22;904;47.814;11.134;2022-10-22T10:35:24;33.10;37.50
1812;DHT22;904;47.814;11.134;2022-10-22T10:38:04;33.60;36.70
1812;DHT22;904;47.814;11.134;2022-10-22T10:40:41;34.00;36.80
1812;DHT22;904;47.814;11.134;2022-10-22T10:43:14;35.80;34.40
1812;DHT22;904;47.814;11.134;2022-10-22T10:45:46;36.40;34.00
1812;DHT22;904;47.814;11.134;2022-10-22T10:48:28;37.90;28.60
1812;DHT22;904;47.814;11.134;2022-10-22T10:51:05;39.70;29.40
1812;DHT22;904;47.814;11.134;2022-10-22T10:53:46;41.70;26.00
1812;DHT22;904;47.814;11.134;2022-10-22T10:56:29;42.10;23.80
1812;DHT22;904;47.814;11.134;2022-10-22T10:59:03;41.70;22.00
1812;DHT22;904;47.814;11.134;2022-10-22T11:01:40;40.70;23.70
1812;DHT22;904;47.814;11.134;2022-10-22T11:07:12;40.10;22.60
1812;DHT22;904;47.814;11.134;2022-10-22T11:09:43;39.90;24.00
1812;DHT22;904;47.814;11.134;2022-10-22T11:12:16;40.80;24.40
1812;DHT22;904;47.814;11.134;2022-10-22T11:14:54;41.80;23.20
1812;DHT22;904;47.814;11.134;2022-10-22T11:17:23;42.30;22.40
1812;DHT22;904;47.814;11.134;2022-10-22T11:19:57;43.30;22.50
1812;DHT22;904;47.814;11.134;2022-10-22T11:22:32;43.90;20.70
1812;DHT22;904;47.814;11.134;2022-10-22T11:25:03;44.20;21.10
1812;DHT22;904;47.814;11.134;2022-10-22T11:27:36;44.90;20.40
1812;DHT22;904;47.814;11.134;2022-10-22T11:30:11;45.10;19.80
1812;DHT22;904;47.814;11.134;2022-10-22T11:32:41;45.40;19.20
1812;DHT22;904;47.814;11.134;2022-10-22T11:35:15;45.90;18.10
1812;DHT22;904;47.814;11.134;2022-10-22T11:37:46;46.50;18.20
1812;DHT22;904;47.814;11.134;2022-10-22T11:40:18;47.40;17.70
1812;DHT22;904;47.814;11.134;2022-10-22T11:42:49;47.80;16.70
1812;DHT22;904;47.814;11.134;2022-10-22T11:45:28;48.00;15.70
1812;DHT22;904;47.814;11.134;2022-10-22T11:47:58;48.50;15.40
1812;DHT22;904;47.814;11.134;2022-10-22T11:50:44;48.80;14.70
1812;DHT22;904;47.814;11.134;2022-10-22T11:53:20;48.90;15.00
1812;DHT22;904;47.814;11.134;2022-10-22T11:55:48;48.00;13.50
1812;DHT22;904;47.814;11.134;2022-10-22T11:58:29;47.20;14.60
1812;DHT22;904;47.814;11.134;2022-10-22T12:01:11;47.20;14.20
1812;DHT22;904;47.814;11.134;2022-10-22T12:03:48;47.50;15.00
1812;DHT22;904;47.814;11.134;2022-10-22T12:06:21;48.20;14.10
1812;DHT22;904;47.814;11.134;2022-10-22T12:09:08;48.20;13.70
1812;DHT22;904;47.814;11.134;2022-10-22T12:11:38;48.50;13.70
1812;DHT22;904;47.814;11.134;2022-10-22T12:14:22;48.60;13.50
1812;DHT22;904;47.814;11.134;2022-10-22T12:16:54;48.90;13.60
1812;DHT22;904;47.814;11.134;2022-10-22T12:19:29;49.20;13.40
1812;DHT22;904;47.814;11.134;2022-10-22T12:22:01;49.40;13.50
1812;DHT22;904;47.814;11.134;2022-10-22T12:24:37;49.30;13.20
1812;DHT22;904;47.814;11.134;2022-10-22T12:27:18;49.30;13.10
1812;DHT22;904;47.814;11.134;2022-10-22T12:29:52;49.30;13.20
1812;DHT22;904;47.814;11.134;2022-10-22T12:32:20;49.10;13.00
1812;DHT22;904;47.814;11.134;2022-10-22T12:34:48;49.00;13.10
1812;DHT22;904;47.814;11.134;2022-10-22T12:37:18;49.00;12.90
1812;DHT22;904;47.814;11.134;2022-10-22T12:39:47;48.80;12.60
1812;DHT22;904;47.814;11.134;2022-10-22T12:42:16;47.20;12.40
1812;DHT22;904;47.814;11.134;2022-10-22T12:44:44;44.80;12.40
1812;DHT22;904;47.814;11.134;2022-10-22T12:47:15;42.80;14.90
1812;DHT22;904;47.814;11.134;2022-10-22T12:49:45;42.80;15.30
1812;DHT22;904;47.814;11.134;2022-10-22T12:52:16;43.40;15.50
1812;DHT22;904;47.814;11.134;2022-10-22T12:54:44;42.80;15.50
1812;DHT22;904;47.814;11.134;2022-10-22T12:57:16;42.90;15.60
1812;DHT22;904;47.814;11.134;2022-10-22T12:59:50;43.10;15.60
1812;DHT22;904;47.814;11.134;2022-10-22T13:02:20;43.40;15.10
1812;DHT22;904;47.814;11.134;2022-10-22T13:05:21;43.60;15.20
1812;DHT22;904;47.814;11.134;2022-10-22T13:07:51;43.70;15.50
1812;DHT22;904;47.814;11.134;2022-10-22T13:10:23;43.60;15.40
1812;DHT22;904;47.814;11.134;2022-10-22T13:12:54;43.50;15.40
1812;DHT22;904;47.814;11.134;2022-10-22T13:15:34;43.20;15.20
1812;DHT22;904;47.814;11.134;2022-10-22T13:18:03;42.70;15.50
1812;DHT22;904;47.814;11.134;2022-10-22T13:20:32;41.70;15.80
1812;DHT22;904;47.814;11.134;2022-10-22T13:23:05;40.30;16.20
1812;DHT22;904;47.814;11.134;2022-10-22T13:25:33;38.70;16.50
1812;DHT22;904;47.814;11.134;2022-10-22T13:28:16;37.00;18.50
1812;DHT22;904;47.814;11.134;2022-10-22T13:30:51;35.70;19.50
1812;DHT22;904;47.814;11.134;2022-10-22T13:33:22;34.50;20.70
1812;DHT22;904;47.814;11.134;2022-10-22T13:35:50;33.60;21.60
1812;DHT22;904;47.814;11.134;2022-10-22T13:38:20;32.70;22.70
1812;DHT22;904;47.814;11.134;2022-10-22T13:40:47;31.80;23.50
1812;DHT22;904;47.814;11.134;2022-10-22T13:43:17;31.00;24.40
1812;DHT22;904;47.814;11.134;2022-10-22T13:45:45;30.30;24.90
1812;DHT22;904;47.814;11.134;2022-10-22T13:48:15;29.60;26.60
1812;DHT22;904;47.814;11.134;2022-10-22T13:50:43;29.00;27.10
1812;DHT22;904;47.814;11.134;2022-10-22T13:53:15;28.50;28.70
1812;DHT22;904;47.814;11.134;2022-10-22T13:55:43;27.90;28.80
1812;DHT22;904;47.814;11.134;2022-10-22T13:58:12;27.50;29.30
1812;DHT22;904;47.814;11.134;2022-10-22T14:00:42;27.00;30.00
1812;DHT22;904;47.814;11.134;2022-10-22T14:03:12;26.50;31.00
1812;DHT22;904;47.814;11.134;2022-10-22T14:05:40;25.90;31.40
1812;DHT22;904;47.814;11.134;2022-10-22T14:08:10;25.50;32.40
1812;DHT22;904;47.814;11.134;2022-10-22T14:10:38;25.10;33.60
1812;DHT22;904;47.814;11.134;2022-10-22T14:13:10;24.70;33.70
1812;DHT22;904;47.814;11.134;2022-10-22T14:15:40;24.30;35.00
1812;DHT22;904;47.814;11.134;2022-10-22T14:18:11;23.90;35.30
1812;DHT22;904;47.814;11.134;2022-10-22T14:20:41;23.60;35.80
1812;DHT22;904;47.814;11.134;2022-10-22T14:23:13;23.30;36.60
1812;DHT22;904;47.814;11.134;2022-10-22T14:25:42;23.00;36.70
1812;DHT22;904;47.814;11.134;2022-10-22T14:28:10;22.80;37.90
1812;DHT22;904;47.814;11.134;2022-10-22T14:30:40;22.50;38.50
1812;DHT22;904;47.814;11.134;2022-10-22T14:33:12;22.40;39.20
1812;DHT22;904;47.814;11.134;2022-10-22T14:35:40;22.10;38.50
1812;DHT22;904;47.814;11.134;2022-10-22T14:38:07;22.00;39.40
1812;DHT22;904;47.814;11.134;2022-10-22T14:40:42;21.80;39.60
1812;DHT22;904;47.814;11.134;2022-10-22T14:43:20;21.70;40.20
1812;DHT22;904;47.814;11.134;2022-10-22T14:45:50;21.60;41.10
1812;DHT22;904;47.814;11.134;2022-10-22T14:48:18;21.40;41.00
1812;DHT22;904;47.814;11.134;2022-10-22T14:50:48;21.30;41.20
1812;DHT22;904;47.814;11.134;2022-10-22T14:53:15;21.20;41.60
1812;DHT22;904;47.814;11.134;2022-10-22T14:55:47;21.00;43.00
1812;DHT22;904;47.814;11.134;2022-10-22T14:58:21;20.90;43.40
1812;DHT22;904;47.814;11.134;2022-10-22T15:00:49;20.90;43.00
1812;DHT22;904;47.814;11.134;2022-10-22T15:03:17;20.80;43.70
1812;DHT22;904;47.814;11.134;2022-10-22T15:05:44;20.70;44.00
1812;DHT22;904;47.814;11.134;2022-10-22T15:08:12;20.60;44.50
1812;DHT22;904;47.814;11.134;2022-10-22T15:10:40;20.50;44.60
1812;DHT22;904;47.814;11.134;2022-10-22T15:13:08;20.50;44.90
1812;DHT22;904;47.814;11.134;2022-10-22T15:15:35;20.40;44.90
1812;DHT22;904;47.814;11.134;2022-10-22T15:18:05;20.30;44.90
1812;DHT22;904;47.814;11.134;2022-10-22T15:20:33;20.30;44.70
1812;DHT22;904;47.814;11.134;2022-10-22T15:23:00;20.30;44.90
1812;DHT22;904;47.814;11.134;2022-10-22T15:25:27;20.20;45.60
1812;DHT22;904;47.814;11.134;2022-10-22T15:27:54;20.20;46.00
1812;DHT22;904;47.814;11.134;2022-10-22T15:30:21;20.10;47.40
1812;DHT22;904;47.814;11.134;2022-10-22T15:32:48;20.00;47.00
1812;DHT22;904;47.814;11.134;2022-10-22T15:35:16;19.90;47.10
1812;DHT22;904;47.814;11.134;2022-10-22T15:37:43;19.80;47.40
1812;DHT22;904;47.814;11.134;2022-10-22T15:40:11;19.80;47.80
1812;DHT22;904;47.814;11.134;2022-10-22T15:42:38;19.70;47.80
1812;DHT22;904;47.814;11.134;2022-10-22T15:45:06;19.60;47.90
1812;DHT22;904;47.814;11.134;2022-10-22T15:47:33;19.50;49.00
1812;DHT22;904;47.814;11.134;2022-10-22T15:50:04;19.40;49.10
1812;DHT22;904;47.814;11.134;2022-10-22T15:52:33;19.30;49.80
1812;DHT22;904;47.814;11.134;2022-10-22T15:55:00;19.20;50.20
1812;DHT22;904;47.814;11.134;2022-10-22T15:57:31;19.10;50.10
1812;DHT22;904;47.814;11.134;2022-10-22T16:00:05;19.00;50.20
1812;DHT22;904;47.814;11.134;2022-10-22T16:02:33;18.90;50.30
1812;DHT22;904;47.814;11.134;2022-10-22T16:05:05;18.90;51.00
1812;DHT22;904;47.814;11.134;2022-10-22T16:07:33;18.80;51.10
1812;DHT22;904;47.814;11.134;2022-10-22T16:10:06;18.70;51.90
1812;DHT22;904;47.814;11.134;2022-10-22T16:12:37;18.70;52.50
1812;DHT22;904;47.814;11.134;2022-10-22T16:15:07;18.60;53.30
1812;DHT22;904;47.814;11.134;2022-10-22T16:17:34;18.50;53.50
1812;DHT22;904;47.814;11.134;2022-10-22T16:22:29;18.30;53.70
1812;DHT22;904;47.814;11.134;2022-10-22T16:24:57;18.30;55.30
1812;DHT22;904;47.814;11.134;2022-10-22T16:27:24;18.20;55.40
1812;DHT22;904;47.814;11.134;2022-10-22T16:29:52;18.00;56.80
1812;DHT22;904;47.814;11.134;2022-10-22T16:32:19;17.90;56.80
1812;DHT22;904;47.814;11.134;2022-10-22T16:34:46;17.80;57.60
1812;DHT22;904;47.814;11.134;2022-10-22T16:37:13;17.70;58.10
1812;DHT22;904;47.814;11.134;2022-10-22T16:39:40;17.50;58.50
1812;DHT22;904;47.814;11.134;2022-10-22T16:42:09;17.30;60.80
1812;DHT22;904;47.814;11.134;2022-10-22T16:44:36;17.20;64.50
1812;DHT22;904;47.814;11.134;2022-10-22T16:47:04;17.10;64.40
1812;DHT22;904;47.814;11.134;2022-10-22T16:49:31;16.90;65.20
1812;DHT22;904;47.814;11.134;2022-10-22T16:51:58;16.80;66.60
1812;DHT22;904;47.814;11.134;2022-10-22T16:54:25;16.70;67.50
1812;DHT22;904;47.814;11.134;2022-10-22T16:56:52;16.60;67.20
1812;DHT22;904;47.814;11.134;2022-10-22T16:59:25;16.50;68.40
1812;DHT22;904;47.814;11.134;2022-10-22T17:01:53;16.50;68.80
1812;DHT22;904;47.814;11.134;2022-10-22T17:04:23;16.40;68.60
1812;DHT22;904;47.814;11.134;2022-10-22T17:06:50;16.40;70.50
1812;DHT22;904;47.814;11.134;2022-10-22T17:09:18;16.20;72.20
1812;DHT22;904;47.814;11.134;2022-10-22T17:11:50;16.20;72.20
1812;DHT22;904;47.814;11.134;2022-10-22T17:14:17;16.10;72.80
1812;DHT22;904;47.814;11.134;2022-10-22T17:16:46;16.00;74.80
1812;DHT22;904;47.814;11.134;2022-10-22T17:19:19;15.90;74.60
1812;DHT22;904;47.814;11.134;2022-10-22T17:21:46;15.90;75.40
1812;DHT22;904;47.814;11.134;2022-10-22T17:24:14;15.90;75.10
1812;DHT22;904;47.814;11.134;2022-10-22T17:26:41;15.80;75.20
1812;DHT22;904;47.814;11.134;2022-10-22T17:29:09;15.70;75.60
1812;DHT22;904;47.814;11.134;2022-10-22T17:31:37;15.70;76.60
1812;DHT22;904;47.814;11.134;2022-10-22T17:34:07;15.60;76.40
1812;DHT22;904;47.814;11.134;2022-10-22T17:36:35;15.60;77.30
1812;DHT22;904;47.814;11.134;2022-10-22T17:39:05;15.50;77.60
1812;DHT22;904;47.814;11.134;2022-10-22T17:41:34;15.50;78.00
1812;DHT22;904;47.814;11.134;2022-10-22T17:44:04;15.50;77.70
1812;DHT22;904;47.814;11.134;2022-10-22T17:46:31;15.40;79.00
1812;DHT22;904;47.814;11.134;2022-10-22T17:49:00;15.40;79.60
1812;DHT22;904;47.814;11.134;2022-10-22T17:51:30;15.30;80.00
1812;DHT22;904;47.814;11.134;2022-10-22T17:53:57;15.20;82.20
1812;DHT22;904;47.814;11.134;2022-10-22T17:56:26;15.10;83.00
1812;DHT22;904;47.814;11.134;2022-10-22T17:58:53;15.00;83.80
1812;DHT22;904;47.814;11.134;2022-10-22T18:01:25;14.90;85.00
1812;DHT22;904;47.814;11.134;2022-10-22T18:03:58;14.80;85.80
1812;DHT22;904;47.814;11.134;2022-10-22T18:06:26;14.70;86.10
1812;DHT22;904;47.814;11.134;2022-10-22T18:08:55;14.70;86.00
1812;DHT22;904;47.814;11.134;2022-10-22T18:11:24;14.60;86.20
1812;DHT22;904;47.814;11.134;2022-10-22T18:13:52;14.60;87.10
1812;DHT22;904;47.814;11.134;2022-10-22T18:16:20;14.60;87.70
1812;DHT22;904;47.814;11.134;2022-10-22T18:18:49;14.50;87.40
1812;DHT22;904;47.814;11.134;2022-10-22T18:21:21;14.50;88.00
1812;DHT22;904;47.814;11.134;2022-10-22T18:23:49;14.40;87.90
1812;DHT22;904;47.814;11.134;2022-10-22T18:26:20;14.30;88.80
1812;DHT22;904;47.814;11.134;2022-10-22T18:28:49;14.20;89.70
1812;DHT22;904;47.814;11.134;2022-10-22T18:31:18;14.20;89.60
1812;DHT22;904;47.814;11.134;2022-10-22T18:33:48;14.20;89.20
1812;DHT22;904;47.814;11.134;2022-10-22T18:36:18;14.20;89.20
1812;DHT22;904;47.814;11.134;2022-10-22T18:38:51;14.20;90.20
1812;DHT22;904;47.814;11.134;2022-10-22T18:41:21;14.10;90.20
1812;DHT22;904;47.814;11.134;2022-10-22T18:43:49;14.10;90.20
1812;DHT22;904;47.814;11.134;2022-10-22T18:46:19;14.00;89.90
1812;DHT22;904;47.814;11.134;2022-10-22T18:48:48;14.00;89.40
1812;DHT22;904;47.814;11.134;2022-10-22T18:51:20;14.00;89.60
1812;DHT22;904;47.814;11.134;2022-10-22T18:53:49;13.90;89.30